createdAt,value
2018-05-25T00:02:18.379Z,14.00
2018-05-25T00:04:46.603Z,13.97
2018-05-25T00:07:14.655Z,13.95
2018-05-25T00:09:42.939Z,13.95
2018-05-25T00:12:10.506Z,13.95
2018-05-25T00:14:38.520Z,13.93
2018-05-25T00:17:06.049Z,13.90
2018-05-25T00:19:34.015Z,13.89
2018-05-25T00:22:02.651Z,13.88
2018-05-25T00:24:30.870Z,13.90
2018-05-25T00:26:59.281Z,13.84
2018-05-25T00:29:27.579Z,13.78
2018-05-25T00:31:55.823Z,13.75
2018-05-25T00:34:23.504Z,13.71
2018-05-25T00:36:51.794Z,13.68
2018-05-25T00:39:19.328Z,13.65
2018-05-25T00:41:46.931Z,13.63
2018-05-25T00:44:14.488Z,13.56
2018-05-25T00:46:42.016Z,13.51
2018-05-25T00:49:09.698Z,13.49
2018-05-25T00:51:37.271Z,13.46
2018-05-25T00:54:04.836Z,13.45
2018-05-25T00:56:32.375Z,13.41
2018-05-25T00:58:59.948Z,13.36
2018-05-25T01:01:27.649Z,13.33
2018-05-25T01:03:55.186Z,13.28
2018-05-25T01:06:23.567Z,13.26
2018-05-25T01:08:51.823Z,13.22
2018-05-25T01:11:19.857Z,13.18
2018-05-25T01:13:47.543Z,13.10
2018-05-25T01:16:16.328Z,13.06
2018-05-25T01:18:44.260Z,13.03
2018-05-25T01:21:12.565Z,13.01
2018-05-25T01:23:40.104Z,12.94
2018-05-25T01:26:08.404Z,12.88
2018-05-25T01:28:36.754Z,12.85
2018-05-25T01:31:04.292Z,12.82
2018-05-25T01:33:31.842Z,12.77
2018-05-25T01:36:00.255Z,12.66
2018-05-25T01:38:27.784Z,12.56
2018-05-25T01:40:55.322Z,12.53
2018-05-25T01:43:22.965Z,12.49
2018-05-25T01:45:50.519Z,12.40
2018-05-25T01:48:18.104Z,12.30
2018-05-25T01:50:45.758Z,12.22
2018-05-25T01:53:13.305Z,12.16
2018-05-25T01:55:40.844Z,12.16
2018-05-25T01:58:08.503Z,12.12
2018-05-25T02:00:36.389Z,12.12
2018-05-25T02:03:03.921Z,12.12
2018-05-25T02:05:32.304Z,12.09
2018-05-25T02:08:00.517Z,12.06
2018-05-25T02:10:28.598Z,11.98
2018-05-25T02:12:56.162Z,11.96
2018-05-25T02:15:25.568Z,11.92
2018-05-25T02:17:53.299Z,11.91
2018-05-25T02:20:20.897Z,11.89
2018-05-25T02:22:49.098Z,11.89
2018-05-25T02:25:16.766Z,11.90
2018-05-25T02:27:44.947Z,11.88
2018-05-25T02:30:12.511Z,11.88
2018-05-25T02:32:40.089Z,11.89
2018-05-25T02:35:07.663Z,11.92
2018-05-25T02:37:35.924Z,11.93
2018-05-25T02:42:45.333Z,11.95
2018-05-25T02:45:13.114Z,11.94
2018-05-25T02:47:40.689Z,11.95
2018-05-25T02:50:08.289Z,12.11
2018-05-25T02:52:35.850Z,12.54
2018-05-25T02:55:03.408Z,13.06
2018-05-25T02:57:30.999Z,13.43
2018-05-25T02:59:58.708Z,13.87
2018-05-25T03:02:26.241Z,14.38
2018-05-25T03:04:53.808Z,14.90
2018-05-25T03:07:22.235Z,15.32
2018-05-25T03:09:50.781Z,15.76
2018-05-25T03:12:18.323Z,16.27
2018-05-25T03:14:46.904Z,16.75
2018-05-25T03:17:14.446Z,17.17
2018-05-25T03:19:41.976Z,17.52
2018-05-25T03:22:10.455Z,17.88
2018-05-25T03:24:37.994Z,18.29
2018-05-25T03:27:06.468Z,18.69
2018-05-25T03:29:34.818Z,19.11
2018-05-25T03:32:02.368Z,19.51
2018-05-25T03:34:29.899Z,19.84
2018-05-25T03:36:58.075Z,20.05
2018-05-25T03:39:25.610Z,20.25
2018-05-25T03:41:53.390Z,20.52
2018-05-25T03:44:21.004Z,20.79
2018-05-25T03:46:48.535Z,21.08
2018-05-25T03:49:17.785Z,21.42
2018-05-25T03:51:45.461Z,21.76
2018-05-25T03:54:13.021Z,21.90
2018-05-25T03:56:41.695Z,22.09
2018-05-25T03:59:21.918Z,22.25
2018-05-25T04:02:01.028Z,22.32
2018-05-25T04:04:28.597Z,22.31
2018-05-25T04:06:57.050Z,22.18
2018-05-25T04:09:25.499Z,21.85
2018-05-25T04:11:53.703Z,21.42
2018-05-25T04:14:21.862Z,21.03
2018-05-25T04:16:49.365Z,20.66
2018-05-25T04:21:54.340Z,20.00
2018-05-25T04:24:21.885Z,19.67
2018-05-25T04:26:50.419Z,19.44
2018-05-25T04:29:17.964Z,19.22
2018-05-25T04:31:45.639Z,19.01
2018-05-25T04:34:13.234Z,18.82
2018-05-25T04:36:40.780Z,18.65
2018-05-25T04:39:08.318Z,18.52
2018-05-25T04:41:35.887Z,18.49
2018-05-25T04:44:03.454Z,18.50
2018-05-25T04:46:31.003Z,18.50
2018-05-25T04:48:58.583Z,18.50
2018-05-25T04:51:26.407Z,18.50
2018-05-25T04:53:54.110Z,18.48
2018-05-25T04:56:21.707Z,18.49
2018-05-25T04:58:49.291Z,18.48
2018-05-25T05:01:17.167Z,18.50
2018-05-25T05:03:44.819Z,18.52
2018-05-25T05:06:13.175Z,18.58
2018-05-25T05:08:41.120Z,18.65
2018-05-25T05:11:09.445Z,18.65
2018-05-25T05:13:38.037Z,18.70
2018-05-25T05:16:06.297Z,18.74
2018-05-25T05:18:33.834Z,18.77
2018-05-25T05:21:02.583Z,18.81
2018-05-25T05:23:30.114Z,18.87
2018-05-25T05:25:57.664Z,18.89
2018-05-25T05:28:26.121Z,18.88
2018-05-25T05:30:53.667Z,18.93
2018-05-25T05:33:21.222Z,19.02
2018-05-25T05:35:49.874Z,19.18
2018-05-25T05:38:18.383Z,19.29
2018-05-25T05:40:46.439Z,19.31
2018-05-25T05:43:14.013Z,19.29
2018-05-25T05:45:41.543Z,19.33
2018-05-25T05:48:09.130Z,19.42
2018-05-25T05:50:36.818Z,19.52
2018-05-25T05:53:04.345Z,19.58
2018-05-25T05:55:31.911Z,19.64
2018-05-25T05:58:00.202Z,19.67
2018-05-25T06:00:27.753Z,19.71
2018-05-25T06:02:55.278Z,19.80
2018-05-25T06:05:23.813Z,19.90
2018-05-25T06:07:52.080Z,20.03
2018-05-25T06:10:21.770Z,20.19
2018-05-25T06:12:49.307Z,20.29
2018-05-25T06:15:18.695Z,20.41
2018-05-25T06:17:46.651Z,20.42
2018-05-25T06:20:14.197Z,20.50
2018-05-25T06:22:42.393Z,20.55
2018-05-25T06:25:09.931Z,20.63
2018-05-25T06:27:38.193Z,20.62
2018-05-25T06:30:05.796Z,20.60
2018-05-25T06:32:33.343Z,20.57
2018-05-25T06:35:00.916Z,20.58
2018-05-25T06:37:28.608Z,20.62
2018-05-25T06:39:56.160Z,20.74
2018-05-25T06:42:23.736Z,20.84
2018-05-25T06:44:51.268Z,20.99
2018-05-25T06:47:18.816Z,21.00
2018-05-25T06:49:47.838Z,21.05
2018-05-25T06:52:15.666Z,21.14
2018-05-25T06:54:43.211Z,21.21
2018-05-25T06:57:10.796Z,21.35
2018-05-25T06:59:38.339Z,21.38
2018-05-25T07:02:06.014Z,21.47
2018-05-25T07:04:34.079Z,21.54
2018-05-25T07:07:02.408Z,21.65
2018-05-25T07:09:30.784Z,21.76
2018-05-25T07:11:58.326Z,21.83
2018-05-25T07:14:26.891Z,21.83
2018-05-25T07:16:54.505Z,21.93
2018-05-25T07:19:22.461Z,22.06
2018-05-25T07:21:50.655Z,22.11
2018-05-25T07:24:18.194Z,22.24
2018-05-25T07:26:46.651Z,22.32
2018-05-25T07:29:14.211Z,22.39
2018-05-25T07:31:41.743Z,22.38
2018-05-25T07:34:09.316Z,22.37
2018-05-25T07:36:36.843Z,22.50
2018-05-25T07:39:04.527Z,22.58
2018-05-25T07:41:32.136Z,22.57
2018-05-25T07:43:59.673Z,22.68
2018-05-25T07:46:27.229Z,22.72
2018-05-25T07:48:54.813Z,22.79
2018-05-25T07:51:22.575Z,22.81
2018-05-25T07:53:50.117Z,22.84
2018-05-25T07:56:17.957Z,22.87
2018-05-25T07:58:45.628Z,22.96
2018-05-25T08:01:14.606Z,23.04
2018-05-25T08:03:42.144Z,23.14
2018-05-25T08:06:10.443Z,23.24
2018-05-25T08:08:37.976Z,23.37
2018-05-25T08:11:06.047Z,23.42
2018-05-25T08:13:34.430Z,23.48
2018-05-25T08:16:02.610Z,23.54
2018-05-25T08:18:30.167Z,23.55
2018-05-25T08:20:57.981Z,23.63
2018-05-25T08:23:26.929Z,23.67
2018-05-25T08:25:54.579Z,23.63
2018-05-25T08:28:22.551Z,23.66
2018-05-25T08:30:50.170Z,23.67
2018-05-25T08:33:18.258Z,23.66
2018-05-25T08:35:46.563Z,23.71
2018-05-25T08:38:14.471Z,23.74
2018-05-25T08:40:42.064Z,23.69
2018-05-25T08:43:09.658Z,23.75
2018-05-25T08:45:37.214Z,23.75
2018-05-25T08:48:04.787Z,23.70
2018-05-25T08:50:32.378Z,23.76
2018-05-25T08:52:59.944Z,23.76
2018-05-25T08:55:27.504Z,23.84
2018-05-25T08:57:55.079Z,23.92
2018-05-25T09:00:23.075Z,23.94
2018-05-25T09:02:50.635Z,24.00
2018-05-25T09:05:18.919Z,24.07
2018-05-25T09:07:46.804Z,24.15
2018-05-25T09:10:15.051Z,24.16
2018-05-25T09:12:42.582Z,24.05
2018-05-25T09:15:11.066Z,23.99
2018-05-25T09:17:38.630Z,23.90
2018-05-25T09:20:06.165Z,23.97
2018-05-25T09:22:34.443Z,23.91
2018-05-25T09:25:01.996Z,23.98
2018-05-25T09:27:30.239Z,23.99
2018-05-25T09:29:57.780Z,24.17
2018-05-25T09:32:25.449Z,24.23
2018-05-25T09:34:53.248Z,24.32
2018-05-25T09:37:20.782Z,24.37
2018-05-25T09:39:48.319Z,24.37
2018-05-25T09:42:16.168Z,24.34
2018-05-25T09:44:43.726Z,24.47
2018-05-25T09:47:11.290Z,24.61
2018-05-25T09:49:38.854Z,24.76
2018-05-25T09:52:06.526Z,24.82
2018-05-25T09:54:34.069Z,24.84
2018-05-25T09:57:02.559Z,24.71
2018-05-25T09:59:30.194Z,24.63
2018-05-25T10:04:56.548Z,24.58
2018-05-25T10:07:24.204Z,24.73
2018-05-25T10:09:52.586Z,24.70
2018-05-25T10:12:20.147Z,24.75
2018-05-25T10:14:48.475Z,24.79
2018-05-25T10:17:16.287Z,24.85
2018-05-25T10:19:43.830Z,24.89
2018-05-25T10:22:12.004Z,24.96
2018-05-25T10:24:39.523Z,25.08
2018-05-25T10:27:07.756Z,25.15
2018-05-25T10:29:35.295Z,25.18
2018-05-25T10:32:02.818Z,25.30
2018-05-25T10:34:30.423Z,25.48
2018-05-25T10:36:57.967Z,25.50
2018-05-25T10:39:25.679Z,25.42
2018-05-25T10:41:54.222Z,25.37
2018-05-25T10:44:21.770Z,25.41
2018-05-25T10:46:49.300Z,25.42
2018-05-25T10:49:17.075Z,25.45
2018-05-25T10:51:44.762Z,25.53
2018-05-25T10:54:13.091Z,25.41
2018-05-25T10:56:40.633Z,25.43
2018-05-25T10:59:08.169Z,25.47
2018-05-25T11:01:35.752Z,25.52
2018-05-25T11:04:03.295Z,25.52
2018-05-25T11:06:31.359Z,25.63
2018-05-25T11:08:58.890Z,25.64
2018-05-25T11:11:27.103Z,25.63
2018-05-25T11:13:56.354Z,25.67
2018-05-25T11:16:24.601Z,25.61
2018-05-25T11:18:53.760Z,25.55
2018-05-25T11:21:22.287Z,25.61
2018-05-25T11:23:49.810Z,25.63
2018-05-25T11:26:18.778Z,25.63
2018-05-25T11:28:47.332Z,25.57
2018-05-25T11:31:14.933Z,25.63
2018-05-25T11:33:42.457Z,25.57
2018-05-25T11:36:10.039Z,25.71
2018-05-25T11:38:37.571Z,25.78
2018-05-25T11:41:06.031Z,25.75
2018-05-25T11:43:33.817Z,25.71
2018-05-25T11:46:01.357Z,25.71
2018-05-25T11:48:28.931Z,25.74
2018-05-25T11:50:56.502Z,25.81
2018-05-25T11:53:25.082Z,25.85
2018-05-25T11:55:53.273Z,25.77
2018-05-25T11:58:20.922Z,25.82
2018-05-25T12:00:48.543Z,25.92
2018-05-25T12:03:17.113Z,25.84
2018-05-25T12:05:45.167Z,25.65
2018-05-25T12:08:13.055Z,25.61
2018-05-25T12:10:41.169Z,25.63
2018-05-25T12:13:09.526Z,25.71
2018-05-25T12:15:37.680Z,25.75
2018-05-25T12:18:05.217Z,25.80
2018-05-25T12:20:32.747Z,25.82
2018-05-25T12:23:01.042Z,25.91
2018-05-25T12:25:28.610Z,26.03
2018-05-25T12:27:56.704Z,26.08
2018-05-25T12:30:24.283Z,26.12
2018-05-25T12:32:51.875Z,26.18
2018-05-25T12:35:19.454Z,26.13
2018-05-25T12:37:47.120Z,26.09
2018-05-25T12:40:14.644Z,25.96
2018-05-25T12:42:42.229Z,25.99
2018-05-25T12:45:13.500Z,25.96
2018-05-25T12:47:41.042Z,25.95
2018-05-25T12:50:09.231Z,26.04
2018-05-25T12:52:36.775Z,26.07
2018-05-25T12:55:05.103Z,26.02
2018-05-25T12:57:32.650Z,25.86
2018-05-25T13:00:00.269Z,25.86
2018-05-25T13:02:27.902Z,25.86
2018-05-25T13:04:56.095Z,25.94
2018-05-25T13:07:23.630Z,25.89
2018-05-25T13:09:51.615Z,25.90
2018-05-25T13:15:17.858Z,26.09
2018-05-25T13:17:45.687Z,26.14
2018-05-25T13:20:13.285Z,26.12
2018-05-25T13:22:41.414Z,26.18
2018-05-25T13:25:08.948Z,26.15
2018-05-25T13:27:37.249Z,26.19
2018-05-25T13:30:04.855Z,26.08
2018-05-25T13:32:32.427Z,26.09
2018-05-25T13:35:00.006Z,26.16
2018-05-25T13:37:27.564Z,26.25
2018-05-25T13:39:55.313Z,26.16
2018-05-25T13:42:23.053Z,26.06
2018-05-25T13:44:50.588Z,26.04
2018-05-25T13:47:18.124Z,26.10
2018-05-25T13:49:45.796Z,26.00
2018-05-25T13:52:13.760Z,25.86
2018-05-25T13:54:42.123Z,25.80
2018-05-25T13:57:09.683Z,25.83
2018-05-25T13:59:37.216Z,25.84
2018-05-25T14:02:04.826Z,25.83
2018-05-25T14:04:32.391Z,25.85
2018-05-25T14:07:00.373Z,25.88
2018-05-25T14:09:28.407Z,25.89
2018-05-25T14:11:55.942Z,25.99
2018-05-25T14:14:24.929Z,26.09
2018-05-25T14:16:52.510Z,26.11
2018-05-25T14:19:20.198Z,26.16
2018-05-25T14:21:48.291Z,26.14
2018-05-25T14:24:16.024Z,26.19
2018-05-25T14:26:44.292Z,26.16
2018-05-25T14:29:11.977Z,26.11
2018-05-25T14:31:39.518Z,25.95
2018-05-25T14:34:07.095Z,25.87
2018-05-25T14:36:34.626Z,25.94
2018-05-25T14:39:02.163Z,26.07
2018-05-25T14:41:29.790Z,26.12
2018-05-25T14:43:57.360Z,26.12
2018-05-25T14:46:24.896Z,26.05
2018-05-25T14:48:52.549Z,25.96
2018-05-25T14:51:20.727Z,25.95
2018-05-25T14:53:49.075Z,26.04
2018-05-25T14:56:18.122Z,26.15
2018-05-25T14:58:45.659Z,26.20
2018-05-25T15:01:13.274Z,26.26
2018-05-25T15:03:40.802Z,26.30
2018-05-25T15:06:09.092Z,26.18
2018-05-25T15:08:36.614Z,26.04
2018-05-25T15:11:05.337Z,26.01
2018-05-25T15:13:33.367Z,26.06
2018-05-25T15:16:01.720Z,26.07
2018-05-25T15:18:29.270Z,25.97
2018-05-25T15:20:56.816Z,26.07
2018-05-25T15:23:24.738Z,26.39
2018-05-25T15:25:52.791Z,26.91
2018-05-25T15:28:20.829Z,27.57
2018-05-25T15:30:48.359Z,28.05
2018-05-25T15:33:16.086Z,28.31
2018-05-25T15:35:43.641Z,28.57
2018-05-25T15:38:11.191Z,28.86
2018-05-25T15:40:38.727Z,29.13
2018-05-25T15:43:06.351Z,29.08
2018-05-25T15:45:33.905Z,29.10
2018-05-25T15:48:02.057Z,29.31
2018-05-25T15:50:29.612Z,29.39
2018-05-25T15:52:57.174Z,29.68
2018-05-25T15:55:24.755Z,29.88
2018-05-25T15:57:52.304Z,30.21
2018-05-25T16:00:19.891Z,29.99
2018-05-25T16:02:47.660Z,30.19
2018-05-25T16:05:17.251Z,30.47
2018-05-25T16:07:44.798Z,30.50
2018-05-25T16:10:13.021Z,30.49
2018-05-25T16:12:40.563Z,30.70
2018-05-25T16:15:08.524Z,30.98
2018-05-25T16:17:36.059Z,31.22
2018-05-25T16:20:03.669Z,31.18
2018-05-25T16:22:32.416Z,30.80
2018-05-25T16:24:59.950Z,30.73
2018-05-25T16:27:28.042Z,30.51
2018-05-25T16:29:55.611Z,29.99
2018-05-25T16:32:23.309Z,29.73
2018-05-25T16:34:50.891Z,29.61
2018-05-25T16:37:18.435Z,29.75
2018-05-25T16:39:46.133Z,29.90
2018-05-25T16:42:13.732Z,29.85
2018-05-25T16:44:41.265Z,30.00
2018-05-25T16:47:09.389Z,30.23
2018-05-25T16:49:36.964Z,30.23
2018-05-25T16:52:04.506Z,30.05
2018-05-25T16:54:32.824Z,30.02
2018-05-25T16:57:00.411Z,30.05
2018-05-25T16:59:27.956Z,29.88
2018-05-25T17:01:55.548Z,29.66
2018-05-25T17:04:23.228Z,29.58
2018-05-25T17:06:51.301Z,29.63
2018-05-25T17:09:19.708Z,29.69
2018-05-25T17:11:48.615Z,29.64
2018-05-25T17:14:16.933Z,29.57
2018-05-25T17:16:44.882Z,29.35
2018-05-25T17:19:12.420Z,29.17
2018-05-25T17:21:40.724Z,29.13
2018-05-25T17:24:08.320Z,29.09
2018-05-25T17:26:36.597Z,28.99
2018-05-25T17:29:04.850Z,28.80
2018-05-25T17:31:32.383Z,28.74
2018-05-25T17:33:59.915Z,29.00
2018-05-25T17:36:27.498Z,29.40
2018-05-25T17:38:55.051Z,29.73
2018-05-25T17:41:22.899Z,29.72
2018-05-25T17:43:51.039Z,29.47
2018-05-25T17:46:18.650Z,29.34
2018-05-25T17:48:46.389Z,29.28
2018-05-25T17:51:14.035Z,29.17
2018-05-25T17:53:41.586Z,28.95
2018-05-25T17:56:09.328Z,28.64
2018-05-25T17:58:36.895Z,28.24
2018-05-25T18:01:04.448Z,27.74
2018-05-25T18:03:31.979Z,27.36
2018-05-25T18:06:00.456Z,27.05
2018-05-25T18:08:28.053Z,26.85
2018-05-25T18:10:56.327Z,26.63
2018-05-25T18:13:24.418Z,26.40
2018-05-25T18:15:52.623Z,26.35
2018-05-25T18:18:20.203Z,26.32
2018-05-25T18:20:47.936Z,26.24
2018-05-25T18:23:16.017Z,26.08
2018-05-25T18:25:43.588Z,25.81
2018-05-25T18:28:12.732Z,25.50
2018-05-25T18:30:40.280Z,25.18
2018-05-25T18:33:08.607Z,24.88
2018-05-25T18:35:36.201Z,24.63
2018-05-25T18:38:03.778Z,24.35
2018-05-25T18:40:31.551Z,24.07
2018-05-25T18:42:59.656Z,23.80
2018-05-25T18:45:27.197Z,23.53
2018-05-25T18:47:54.783Z,23.31
2018-05-25T18:50:22.360Z,23.14
2018-05-25T18:52:49.924Z,22.98
2018-05-25T18:55:17.617Z,22.85
2018-05-25T18:57:46.411Z,22.71
2018-05-25T19:00:13.964Z,22.54
2018-05-25T19:02:41.573Z,22.39
2018-05-25T19:05:09.914Z,22.20
2018-05-25T19:07:37.491Z,22.03
2018-05-25T19:10:05.712Z,21.86
2018-05-25T19:12:33.243Z,21.71
2018-05-25T19:15:01.526Z,21.56
2018-05-25T19:17:29.070Z,21.42
2018-05-25T19:19:56.641Z,21.26
2018-05-25T19:22:24.881Z,21.08
2018-05-25T19:24:52.477Z,20.90
2018-05-25T19:27:20.699Z,20.71
2018-05-25T19:29:48.508Z,20.55
2018-05-25T19:32:16.231Z,20.42
2018-05-25T19:34:43.790Z,20.28
2018-05-25T19:37:11.331Z,20.18
2018-05-25T19:39:39.589Z,20.05
2018-05-25T19:42:07.120Z,19.95
2018-05-25T19:44:34.668Z,19.81
2018-05-25T19:47:02.259Z,19.67
2018-05-25T19:49:29.811Z,19.56
2018-05-25T19:51:57.463Z,19.45
2018-05-25T19:54:25.052Z,19.34
2018-05-25T19:56:52.648Z,19.26
2018-05-25T19:59:20.196Z,19.15
2018-05-25T20:01:48.663Z,19.04
2018-05-25T20:04:16.953Z,18.92
2018-05-25T20:06:46.830Z,18.83
2018-05-25T20:09:15.818Z,18.73
2018-05-25T20:11:44.631Z,18.64
2018-05-25T20:14:12.783Z,18.56
2018-05-25T20:16:40.843Z,18.48
2018-05-25T20:19:08.371Z,18.39
2018-05-25T20:21:36.567Z,18.31
2018-05-25T20:24:04.095Z,18.25
2018-05-25T20:26:32.065Z,18.17
2018-05-25T20:29:01.170Z,18.12
2018-05-25T20:31:29.319Z,18.04
2018-05-25T20:33:56.984Z,17.95
2018-05-25T20:36:24.905Z,17.87
2018-05-25T20:38:52.486Z,17.80
2018-05-25T20:41:20.065Z,17.73
2018-05-25T20:43:48.051Z,17.64
2018-05-25T20:46:16.168Z,17.56
2018-05-25T20:48:43.833Z,17.49
2018-05-25T20:51:11.432Z,17.41
2018-05-25T20:53:38.991Z,17.35
2018-05-25T20:56:06.550Z,17.29
2018-05-25T20:58:34.127Z,17.21
2018-05-25T21:01:01.685Z,17.14
2018-05-25T21:03:29.229Z,17.07
2018-05-25T21:05:57.562Z,16.98
2018-05-25T21:08:25.102Z,16.93
2018-05-25T21:10:53.874Z,16.87
2018-05-25T21:13:21.998Z,16.80
2018-05-25T21:15:50.103Z,16.72
2018-05-25T21:18:18.570Z,16.67
2018-05-25T21:20:46.751Z,16.61
2018-05-25T21:23:14.685Z,16.52
2018-05-25T21:25:42.214Z,16.45
2018-05-25T21:28:10.411Z,16.37
2018-05-25T21:30:37.948Z,16.32
2018-05-25T21:33:05.624Z,16.26
2018-05-25T21:35:33.204Z,16.22
2018-05-25T21:38:00.780Z,16.16
2018-05-25T21:40:28.851Z,16.11
2018-05-25T21:42:56.428Z,16.04
2018-05-25T21:45:24.826Z,15.93
2018-05-25T21:47:52.486Z,15.84
2018-05-25T21:50:20.078Z,15.76
2018-05-25T21:52:48.391Z,15.68
2018-05-25T21:55:16.884Z,15.63
2018-05-25T21:57:44.532Z,15.61
2018-05-25T22:00:12.170Z,15.56
2018-05-25T22:02:39.769Z,15.48
2018-05-25T22:05:08.116Z,15.43
2018-05-25T22:07:35.687Z,15.37
2018-05-25T22:10:04.089Z,15.30
2018-05-25T22:12:31.787Z,15.24
2018-05-25T22:15:00.290Z,15.17
2018-05-25T22:17:27.978Z,15.11
2018-05-25T22:19:55.605Z,15.06
2018-05-25T22:22:23.985Z,14.97
2018-05-25T22:24:51.543Z,14.88
2018-05-25T22:27:19.832Z,14.77
2018-05-25T22:29:48.203Z,14.71
2018-05-25T22:32:16.481Z,14.67
2018-05-25T22:34:44.071Z,14.63
2018-05-25T22:37:11.753Z,14.58
2018-05-25T22:39:39.783Z,14.55
2018-05-25T22:42:06.798Z,14.50
2018-05-25T22:44:46.705Z,14.46
2018-05-25T22:47:26.116Z,14.38
2018-05-25T22:50:05.645Z,14.30
2018-05-25T22:52:38.221Z,14.21
2018-05-25T22:55:11.490Z,14.14
2018-05-25T22:57:39.050Z,14.08
2018-05-25T23:00:06.736Z,14.02
2018-05-25T23:02:34.319Z,13.99
2018-05-25T23:05:03.328Z,13.96
2018-05-25T23:07:30.878Z,13.92
2018-05-25T23:09:59.083Z,13.89
2018-05-25T23:12:26.629Z,13.86
2018-05-25T23:14:54.909Z,13.83
2018-05-25T23:17:22.474Z,13.79
2018-05-25T23:19:50.019Z,13.75
2018-05-25T23:22:19.526Z,13.69
2018-05-25T23:24:48.159Z,13.62
2018-05-25T23:27:17.959Z,13.58
2018-05-25T23:29:45.626Z,13.52
2018-05-25T23:32:13.427Z,13.47
2018-05-25T23:34:41.565Z,13.42
2018-05-25T23:37:09.117Z,13.37
2018-05-25T23:39:37.657Z,13.34
2018-05-25T23:42:05.239Z,13.28
2018-05-25T23:44:32.819Z,13.24
2018-05-25T23:47:00.517Z,13.19
2018-05-25T23:49:28.067Z,13.14
2018-05-25T23:51:55.633Z,13.06
2018-05-25T23:54:23.525Z,12.98
2018-05-25T23:56:51.110Z,12.94
2018-05-25T23:59:18.651Z,12.90
